sensor_id;sensor_type;location;lat;lon;timestamp;P1;durP1;ratioP1;P2;durP2;ratioP2
74229;SDS011;62589;12.568;99.958;2023-03-01T00:01:00;35.50;;;27.60;;
74229;SDS011;62589;12.568;99.958;2023-03-01T00:03:31;39.65;;;28.13;;
74229;SDS011;62589;12.568;99.958;2023-03-01T00:05:58;36.92;;;28.23;;
74229;SDS011;62589;12.568;99.958;2023-03-01T00:08:25;36.47;;;28.05;;
74229;SDS011;62589;12.568;99.958;2023-03-01T00:13:58;41.60;;;28.73;;
74229;SDS011;62589;12.568;99.958;2023-03-01T00:16:36;36.47;;;27.60;;
74229;SDS011;62589;12.568;99.958;2023-03-01T00:19:05;39.10;;;27.98;;
74229;SDS011;62589;12.568;99.958;2023-03-01T00:21:32;36.13;;;27.40;;
74229;SDS011;62589;12.568;99.958;2023-03-01T00:24:00;38.33;;;27.60;;
74229;SDS011;62589;12.568;99.958;2023-03-01T00:26:27;33.50;;;26.75;;
74229;SDS011;62589;12.568;99.958;2023-03-01T00:28:54;38.50;;;27.20;;
74229;SDS011;62589;12.568;99.958;2023-03-01T00:31:24;35.92;;;28.00;;
74229;SDS011;62589;12.568;99.958;2023-03-01T00:33:57;36.00;;;28.23;;
74229;SDS011;62589;12.568;99.958;2023-03-01T00:36:26;38.78;;;28.42;;
74229;SDS011;62589;12.568;99.958;2023-03-01T00:38:55;35.80;;;27.63;;
74229;SDS011;62589;12.568;99.958;2023-03-01T00:41:22;37.63;;;28.50;;
74229;SDS011;62589;12.568;99.958;2023-03-01T00:43:52;39.63;;;28.38;;
74229;SDS011;62589;12.568;99.958;2023-03-01T00:46:20;38.30;;;27.95;;
74229;SDS011;62589;12.568;99.958;2023-03-01T00:48:48;43.08;;;29.70;;
74229;SDS011;62589;12.568;99.958;2023-03-01T00:51:25;39.58;;;27.73;;
74229;SDS011;62589;12.568;99.958;2023-03-01T00:53:58;38.30;;;28.25;;
74229;SDS011;62589;12.568;99.958;2023-03-01T00:56:26;35.27;;;27.17;;
74229;SDS011;62589;12.568;99.958;2023-03-01T00:58:53;38.50;;;28.17;;
74229;SDS011;62589;12.568;99.958;2023-03-01T01:01:22;36.30;;;26.27;;
74229;SDS011;62589;12.568;99.958;2023-03-01T01:06:43;34.38;;;26.58;;
74229;SDS011;62589;12.568;99.958;2023-03-01T01:09:13;33.85;;;25.85;;
74229;SDS011;62589;12.568;99.958;2023-03-01T01:11:46;32.17;;;25.90;;
74229;SDS011;62589;12.568;99.958;2023-03-01T01:14:15;32.55;;;25.85;;
74229;SDS011;62589;12.568;99.958;2023-03-01T01:16:42;31.40;;;24.80;;
74229;SDS011;62589;12.568;99.958;2023-03-01T01:19:10;34.50;;;26.27;;
74229;SDS011;62589;12.568;99.958;2023-03-01T01:21:38;32.58;;;25.27;;
74229;SDS011;62589;12.568;99.958;2023-03-01T01:24:05;37.42;;;26.08;;
74229;SDS011;62589;12.568;99.958;2023-03-01T01:26:33;34.30;;;24.35;;
74229;SDS011;62589;12.568;99.958;2023-03-01T01:29:00;39.30;;;25.73;;
74229;SDS011;62589;12.568;99.958;2023-03-01T01:31:29;33.22;;;24.33;;
74229;SDS011;62589;12.568;99.958;2023-03-01T01:33:59;32.72;;;24.70;;
74229;SDS011;62589;12.568;99.958;2023-03-01T01:36:27;34.53;;;25.35;;
74229;SDS011;62589;12.568;99.958;2023-03-01T01:38:53;32.45;;;25.00;;
74229;SDS011;62589;12.568;99.958;2023-03-01T01:41:20;33.83;;;25.05;;
74229;SDS011;62589;12.568;99.958;2023-03-01T01:43:48;33.58;;;26.23;;
74229;SDS011;62589;12.568;99.958;2023-03-01T01:46:37;38.40;;;27.48;;
74229;SDS011;62589;12.568;99.958;2023-03-01T01:49:17;39.60;;;29.75;;
74229;SDS011;62589;12.568;99.958;2023-03-01T01:51:51;45.83;;;31.27;;
74229;SDS011;62589;12.568;99.958;2023-03-01T01:54:31;47.28;;;32.65;;
74229;SDS011;62589;12.568;99.958;2023-03-01T01:57:12;41.05;;;32.47;;
74229;SDS011;62589;12.568;99.958;2023-03-01T01:59:45;41.97;;;32.25;;
74229;SDS011;62589;12.568;99.958;2023-03-01T02:02:16;52.23;;;33.77;;
74229;SDS011;62589;12.568;99.958;2023-03-01T02:04:43;44.65;;;31.05;;
74229;SDS011;62589;12.568;99.958;2023-03-01T02:07:20;42.47;;;30.77;;
74229;SDS011;62589;12.568;99.958;2023-03-01T02:09:51;42.95;;;31.08;;
74229;SDS011;62589;12.568;99.958;2023-03-01T02:12:20;42.78;;;31.60;;
74229;SDS011;62589;12.568;99.958;2023-03-01T02:14:49;43.47;;;32.17;;
74229;SDS011;62589;12.568;99.958;2023-03-01T02:17:16;39.83;;;29.80;;
74229;SDS011;62589;12.568;99.958;2023-03-01T02:19:50;39.80;;;30.13;;
74229;SDS011;62589;12.568;99.958;2023-03-01T02:22:32;44.47;;;30.08;;
74229;SDS011;62589;12.568;99.958;2023-03-01T02:30:52;38.27;;;28.97;;
74229;SDS011;62589;12.568;99.958;2023-03-01T02:33:31;37.15;;;29.67;;
74229;SDS011;62589;12.568;99.958;2023-03-01T02:36:12;43.33;;;29.45;;
74229;SDS011;62589;12.568;99.958;2023-03-01T02:38:42;45.13;;;30.25;;
74229;SDS011;62589;12.568;99.958;2023-03-01T02:41:10;43.95;;;29.92;;
74229;SDS011;62589;12.568;99.958;2023-03-01T02:43:40;42.53;;;29.50;;
74229;SDS011;62589;12.568;99.958;2023-03-01T02:46:08;39.03;;;29.42;;
74229;SDS011;62589;12.568;99.958;2023-03-01T02:48:46;40.22;;;28.17;;
74229;SDS011;62589;12.568;99.958;2023-03-01T02:54:15;38.38;;;29.10;;
74229;SDS011;62589;12.568;99.958;2023-03-01T02:57:03;39.80;;;29.48;;
74229;SDS011;62589;12.568;99.958;2023-03-01T02:59:31;39.05;;;30.00;;
74229;SDS011;62589;12.568;99.958;2023-03-01T03:02:05;36.47;;;29.30;;
74229;SDS011;62589;12.568;99.958;2023-03-01T03:04:32;40.92;;;29.27;;
74229;SDS011;62589;12.568;99.958;2023-03-01T03:06:59;40.33;;;29.42;;
74229;SDS011;62589;12.568;99.958;2023-03-01T03:09:25;38.83;;;29.00;;
74229;SDS011;62589;12.568;99.958;2023-03-01T03:11:52;40.25;;;30.30;;
74229;SDS011;62589;12.568;99.958;2023-03-01T03:14:18;40.53;;;31.50;;
74229;SDS011;62589;12.568;99.958;2023-03-01T03:16:46;40.83;;;30.73;;
74229;SDS011;62589;12.568;99.958;2023-03-01T03:19:15;42.08;;;30.65;;
74229;SDS011;62589;12.568;99.958;2023-03-01T03:21:43;36.63;;;28.70;;
74229;SDS011;62589;12.568;99.958;2023-03-01T03:24:09;41.58;;;30.52;;
74229;SDS011;62589;12.568;99.958;2023-03-01T03:26:36;37.55;;;28.92;;
74229;SDS011;62589;12.568;99.958;2023-03-01T03:29:02;39.22;;;29.23;;
74229;SDS011;62589;12.568;99.958;2023-03-01T03:31:29;37.63;;;28.73;;
74229;SDS011;62589;12.568;99.958;2023-03-01T03:47:12;44.20;;;29.77;;
74229;SDS011;62589;12.568;99.958;2023-03-01T03:49:39;37.28;;;29.33;;
74229;SDS011;62589;12.568;99.958;2023-03-01T03:52:05;43.35;;;30.80;;
74229;SDS011;62589;12.568;99.958;2023-03-01T03:57:06;44.00;;;32.60;;
74229;SDS011;62589;12.568;99.958;2023-03-01T03:59:33;43.65;;;33.92;;
74229;SDS011;62589;12.568;99.958;2023-03-01T04:01:59;47.35;;;33.63;;
74229;SDS011;62589;12.568;99.958;2023-03-01T04:04:26;42.47;;;32.83;;
74229;SDS011;62589;12.568;99.958;2023-03-01T04:06:52;42.00;;;33.25;;
74229;SDS011;62589;12.568;99.958;2023-03-01T04:09:18;46.58;;;34.20;;
74229;SDS011;62589;12.568;99.958;2023-03-01T04:11:45;45.25;;;33.65;;
74229;SDS011;62589;12.568;99.958;2023-03-01T04:14:11;45.25;;;34.42;;
74229;SDS011;62589;12.568;99.958;2023-03-01T04:16:38;46.50;;;35.38;;
74229;SDS011;62589;12.568;99.958;2023-03-01T04:19:04;45.55;;;35.20;;
74229;SDS011;62589;12.568;99.958;2023-03-01T04:21:31;49.15;;;34.95;;
74229;SDS011;62589;12.568;99.958;2023-03-01T04:23:58;46.35;;;33.95;;
74229;SDS011;62589;12.568;99.958;2023-03-01T04:26:24;47.38;;;35.03;;
74229;SDS011;62589;12.568;99.958;2023-03-01T04:28:52;45.53;;;35.03;;
74229;SDS011;62589;12.568;99.958;2023-03-01T04:31:19;49.53;;;36.88;;
74229;SDS011;62589;12.568;99.958;2023-03-01T04:33:53;46.47;;;35.20;;
74229;SDS011;62589;12.568;99.958;2023-03-01T04:36:24;46.08;;;33.85;;
74229;SDS011;62589;12.568;99.958;2023-03-01T04:38:53;42.27;;;32.40;;
74229;SDS011;62589;12.568;99.958;2023-03-01T04:41:21;45.65;;;33.20;;
74229;SDS011;62589;12.568;99.958;2023-03-01T04:43:48;41.10;;;31.80;;
74229;SDS011;62589;12.568;99.958;2023-03-01T04:46:16;38.92;;;29.77;;
74229;SDS011;62589;12.568;99.958;2023-03-01T04:48:45;38.17;;;29.63;;
74229;SDS011;62589;12.568;99.958;2023-03-01T04:51:12;41.30;;;30.85;;
74229;SDS011;62589;12.568;99.958;2023-03-01T04:53:39;38.63;;;29.52;;
74229;SDS011;62589;12.568;99.958;2023-03-01T04:56:06;46.17;;;33.30;;
74229;SDS011;62589;12.568;99.958;2023-03-01T04:58:34;52.67;;;36.95;;
74229;SDS011;62589;12.568;99.958;2023-03-01T05:01:00;49.13;;;34.28;;
74229;SDS011;62589;12.568;99.958;2023-03-01T05:03:27;40.72;;;31.70;;
74229;SDS011;62589;12.568;99.958;2023-03-01T05:05:54;39.00;;;30.80;;
74229;SDS011;62589;12.568;99.958;2023-03-01T05:08:24;36.65;;;29.20;;
74229;SDS011;62589;12.568;99.958;2023-03-01T05:10:52;37.55;;;29.58;;
74229;SDS011;62589;12.568;99.958;2023-03-01T05:13:20;35.58;;;28.70;;
74229;SDS011;62589;12.568;99.958;2023-03-01T05:15:48;39.47;;;28.58;;
74229;SDS011;62589;12.568;99.958;2023-03-01T05:18:30;36.80;;;27.77;;
74229;SDS011;62589;12.568;99.958;2023-03-01T05:21:08;37.67;;;28.42;;
74229;SDS011;62589;12.568;99.958;2023-03-01T05:23:36;36.00;;;26.80;;
74229;SDS011;62589;12.568;99.958;2023-03-01T05:26:04;33.92;;;26.05;;
74229;SDS011;62589;12.568;99.958;2023-03-01T05:28:31;31.63;;;25.15;;
74229;SDS011;62589;12.568;99.958;2023-03-01T05:30:58;33.22;;;23.83;;
74229;SDS011;62589;12.568;99.958;2023-03-01T05:33:25;30.52;;;24.00;;
74229;SDS011;62589;12.568;99.958;2023-03-01T05:35:52;29.48;;;22.67;;
74229;SDS011;62589;12.568;99.958;2023-03-01T05:38:19;27.38;;;21.55;;
74229;SDS011;62589;12.568;99.958;2023-03-01T05:40:48;28.25;;;22.13;;
74229;SDS011;62589;12.568;99.958;2023-03-01T05:43:15;26.95;;;21.35;;
74229;SDS011;62589;12.568;99.958;2023-03-01T05:45:43;25.65;;;22.02;;
74229;SDS011;62589;12.568;99.958;2023-03-01T05:48:11;27.90;;;21.15;;
74229;SDS011;62589;12.568;99.958;2023-03-01T05:50:40;25.45;;;21.23;;
74229;SDS011;62589;12.568;99.958;2023-03-01T05:53:16;27.13;;;22.33;;
74229;SDS011;62589;12.568;99.958;2023-03-01T05:55:46;28.48;;;22.65;;
74229;SDS011;62589;12.568;99.958;2023-03-01T05:58:16;30.73;;;22.98;;
74229;SDS011;62589;12.568;99.958;2023-03-01T06:00:44;32.90;;;26.60;;
74229;SDS011;62589;12.568;99.958;2023-03-01T06:03:12;32.90;;;26.40;;
74229;SDS011;62589;12.568;99.958;2023-03-01T06:05:40;34.60;;;26.23;;
74229;SDS011;62589;12.568;99.958;2023-03-01T06:08:07;37.22;;;27.27;;
74229;SDS011;62589;12.568;99.958;2023-03-01T06:10:36;36.45;;;29.83;;
74229;SDS011;62589;12.568;99.958;2023-03-01T06:13:02;41.13;;;32.63;;
74229;SDS011;62589;12.568;99.958;2023-03-01T06:15:29;40.47;;;30.70;;
74229;SDS011;62589;12.568;99.958;2023-03-01T06:17:55;37.67;;;29.10;;
74229;SDS011;62589;12.568;99.958;2023-03-01T06:20:23;42.25;;;32.00;;
74229;SDS011;62589;12.568;99.958;2023-03-01T06:22:51;37.17;;;30.33;;
74229;SDS011;62589;12.568;99.958;2023-03-01T06:25:18;43.83;;;32.00;;
74229;SDS011;62589;12.568;99.958;2023-03-01T06:27:47;40.60;;;32.30;;
74229;SDS011;62589;12.568;99.958;2023-03-01T06:30:15;40.40;;;32.75;;
74229;SDS011;62589;12.568;99.958;2023-03-01T06:32:43;43.58;;;34.05;;
74229;SDS011;62589;12.568;99.958;2023-03-01T06:35:14;44.90;;;33.17;;
74229;SDS011;62589;12.568;99.958;2023-03-01T06:37:43;38.45;;;31.85;;
74229;SDS011;62589;12.568;99.958;2023-03-01T06:40:11;41.05;;;30.30;;
74229;SDS011;62589;12.568;99.958;2023-03-01T06:42:39;34.15;;;28.45;;
74229;SDS011;62589;12.568;99.958;2023-03-01T06:45:09;39.45;;;30.30;;
74229;SDS011;62589;12.568;99.958;2023-03-01T06:47:36;38.38;;;31.52;;
74229;SDS011;62589;12.568;99.958;2023-03-01T06:50:03;37.55;;;30.13;;
74229;SDS011;62589;12.568;99.958;2023-03-01T06:52:30;42.22;;;31.05;;
74229;SDS011;62589;12.568;99.958;2023-03-01T06:54:57;44.50;;;32.35;;
74229;SDS011;62589;12.568;99.958;2023-03-01T06:57:23;43.78;;;31.77;;
74229;SDS011;62589;12.568;99.958;2023-03-01T06:59:50;38.53;;;31.10;;
74229;SDS011;62589;12.568;99.958;2023-03-01T07:02:17;39.78;;;31.77;;
74229;SDS011;62589;12.568;99.958;2023-03-01T07:04:43;35.17;;;28.75;;
74229;SDS011;62589;12.568;99.958;2023-03-01T07:07:11;39.75;;;30.98;;
74229;SDS011;62589;12.568;99.958;2023-03-01T07:09:37;43.47;;;31.05;;
74229;SDS011;62589;12.568;99.958;2023-03-01T07:12:04;44.38;;;32.38;;
74229;SDS011;62589;12.568;99.958;2023-03-01T07:14:30;43.58;;;31.80;;
74229;SDS011;62589;12.568;99.958;2023-03-01T07:16:57;39.17;;;29.00;;
74229;SDS011;62589;12.568;99.958;2023-03-01T07:19:23;36.67;;;29.73;;
74229;SDS011;62589;12.568;99.958;2023-03-01T07:21:50;34.58;;;28.52;;
74229;SDS011;62589;12.568;99.958;2023-03-01T07:24:16;43.00;;;28.65;;
74229;SDS011;62589;12.568;99.958;2023-03-01T07:26:43;35.42;;;27.83;;
74229;SDS011;62589;12.568;99.958;2023-03-01T07:29:10;35.95;;;27.92;;
74229;SDS011;62589;12.568;99.958;2023-03-01T07:31:36;38.15;;;29.02;;
74229;SDS011;62589;12.568;99.958;2023-03-01T07:34:03;35.42;;;27.65;;
74229;SDS011;62589;12.568;99.958;2023-03-01T07:36:29;32.15;;;26.05;;
74229;SDS011;62589;12.568;99.958;2023-03-01T07:38:56;28.92;;;24.70;;
74229;SDS011;62589;12.568;99.958;2023-03-01T07:41:23;32.08;;;24.02;;
74229;SDS011;62589;12.568;99.958;2023-03-01T07:43:49;26.73;;;21.88;;
74229;SDS011;62589;12.568;99.958;2023-03-01T07:46:16;30.13;;;24.48;;
74229;SDS011;62589;12.568;99.958;2023-03-01T07:48:44;31.40;;;23.77;;
74229;SDS011;62589;12.568;99.958;2023-03-01T07:51:10;33.30;;;23.17;;
74229;SDS011;62589;12.568;99.958;2023-03-01T07:53:37;30.52;;;23.25;;
74229;SDS011;62589;12.568;99.958;2023-03-01T07:56:04;26.27;;;22.15;;
74229;SDS011;62589;12.568;99.958;2023-03-01T07:58:40;28.13;;;22.13;;
74229;SDS011;62589;12.568;99.958;2023-03-01T08:01:09;25.27;;;20.75;;
74229;SDS011;62589;12.568;99.958;2023-03-01T08:03:40;25.87;;;21.30;;
74229;SDS011;62589;12.568;99.958;2023-03-01T08:06:08;26.85;;;20.92;;
74229;SDS011;62589;12.568;99.958;2023-03-01T08:08:36;23.92;;;19.15;;
74229;SDS011;62589;12.568;99.958;2023-03-01T08:11:03;22.80;;;18.98;;
74229;SDS011;62589;12.568;99.958;2023-03-01T08:13:31;25.10;;;17.75;;
74229;SDS011;62589;12.568;99.958;2023-03-01T08:16:02;20.77;;;17.17;;
74229;SDS011;62589;12.568;99.958;2023-03-01T08:18:29;24.02;;;16.98;;
74229;SDS011;62589;12.568;99.958;2023-03-01T08:21:00;20.70;;;17.35;;
74229;SDS011;62589;12.568;99.958;2023-03-01T08:23:28;18.40;;;15.90;;
74229;SDS011;62589;12.568;99.958;2023-03-01T08:26:03;20.90;;;16.55;;
74229;SDS011;62589;12.568;99.958;2023-03-01T08:28:49;18.80;;;15.45;;
74229;SDS011;62589;12.568;99.958;2023-03-01T08:31:23;18.85;;;15.82;;
74229;SDS011;62589;12.568;99.958;2023-03-01T08:33:52;16.23;;;14.52;;
74229;SDS011;62589;12.568;99.958;2023-03-01T08:36:24;17.60;;;14.77;;
74229;SDS011;62589;12.568;99.958;2023-03-01T08:41:20;19.98;;;14.98;;
74229;SDS011;62589;12.568;99.958;2023-03-01T08:43:47;20.17;;;14.70;;
74229;SDS011;62589;12.568;99.958;2023-03-01T08:46:14;17.85;;;14.43;;
74229;SDS011;62589;12.568;99.958;2023-03-01T08:48:40;17.42;;;14.93;;
74229;SDS011;62589;12.568;99.958;2023-03-01T08:51:12;19.50;;;14.90;;
74229;SDS011;62589;12.568;99.958;2023-03-01T08:53:41;19.02;;;15.27;;
74229;SDS011;62589;12.568;99.958;2023-03-01T08:56:08;18.67;;;15.18;;
74229;SDS011;62589;12.568;99.958;2023-03-01T08:58:35;19.10;;;14.60;;
74229;SDS011;62589;12.568;99.958;2023-03-01T09:01:12;21.95;;;15.48;;
74229;SDS011;62589;12.568;99.958;2023-03-01T09:03:41;17.10;;;14.13;;
74229;SDS011;62589;12.568;99.958;2023-03-01T09:06:08;16.63;;;13.32;;
74229;SDS011;62589;12.568;99.958;2023-03-01T09:08:37;19.90;;;14.10;;
74229;SDS011;62589;12.568;99.958;2023-03-01T09:11:05;17.90;;;12.27;;
74229;SDS011;62589;12.568;99.958;2023-03-01T09:13:33;14.90;;;12.35;;
74229;SDS011;62589;12.568;99.958;2023-03-01T09:16:03;17.20;;;12.38;;
74229;SDS011;62589;12.568;99.958;2023-03-01T09:18:31;16.48;;;12.77;;
74229;SDS011;62589;12.568;99.958;2023-03-01T09:21:06;13.77;;;12.27;;
74229;SDS011;62589;12.568;99.958;2023-03-01T09:23:35;19.10;;;13.20;;
74229;SDS011;62589;12.568;99.958;2023-03-01T09:26:05;14.98;;;13.30;;
74229;SDS011;62589;12.568;99.958;2023-03-01T09:28:33;18.83;;;14.00;;
74229;SDS011;62589;12.568;99.958;2023-03-01T09:31:00;18.83;;;14.68;;
74229;SDS011;62589;12.568;99.958;2023-03-01T09:33:28;17.70;;;13.75;;
74229;SDS011;62589;12.568;99.958;2023-03-01T09:35:56;20.33;;;15.13;;
74229;SDS011;62589;12.568;99.958;2023-03-01T09:38:24;18.95;;;14.68;;
74229;SDS011;62589;12.568;99.958;2023-03-01T09:40:52;18.10;;;14.88;;
74229;SDS011;62589;12.568;99.958;2023-03-01T09:46:20;20.75;;;15.45;;
74229;SDS011;62589;12.568;99.958;2023-03-01T09:48:55;23.75;;;15.93;;
74229;SDS011;62589;12.568;99.958;2023-03-01T09:51:27;22.25;;;16.13;;
74229;SDS011;62589;12.568;99.958;2023-03-01T09:53:56;17.45;;;14.68;;
74229;SDS011;62589;12.568;99.958;2023-03-01T09:56:32;19.45;;;15.30;;
74229;SDS011;62589;12.568;99.958;2023-03-01T09:59:20;17.75;;;14.43;;
74229;SDS011;62589;12.568;99.958;2023-03-01T10:04:59;15.27;;;13.55;;
74229;SDS011;62589;12.568;99.958;2023-03-01T10:10:43;18.42;;;13.63;;
74229;SDS011;62589;12.568;99.958;2023-03-01T10:16:17;21.58;;;15.63;;
74229;SDS011;62589;12.568;99.958;2023-03-01T10:19:03;18.02;;;13.75;;
74229;SDS011;62589;12.568;99.958;2023-03-01T10:21:32;21.65;;;14.20;;
74229;SDS011;62589;12.568;99.958;2023-03-01T10:24:08;17.08;;;14.18;;
74229;SDS011;62589;12.568;99.958;2023-03-01T10:26:56;18.95;;;15.20;;
74229;SDS011;62589;12.568;99.958;2023-03-01T10:29:49;19.70;;;15.93;;
74229;SDS011;62589;12.568;99.958;2023-03-01T10:32:36;19.98;;;15.63;;
74229;SDS011;62589;12.568;99.958;2023-03-01T10:40:32;22.10;;;17.33;;
74229;SDS011;62589;12.568;99.958;2023-03-01T10:43:05;21.65;;;17.20;;
74229;SDS011;62589;12.568;99.958;2023-03-01T10:45:34;20.27;;;16.55;;
74229;SDS011;62589;12.568;99.958;2023-03-01T10:53:49;22.48;;;17.13;;
74229;SDS011;62589;12.568;99.958;2023-03-01T10:56:17;22.73;;;16.88;;
74229;SDS011;62589;12.568;99.958;2023-03-01T11:01:34;18.83;;;16.23;;
74229;SDS011;62589;12.568;99.958;2023-03-01T11:06:46;21.75;;;18.05;;
74229;SDS011;62589;12.568;99.958;2023-03-01T11:09:25;26.27;;;18.60;;
74229;SDS011;62589;12.568;99.958;2023-03-01T11:11:57;22.65;;;18.25;;
74229;SDS011;62589;12.568;99.958;2023-03-01T11:22:36;22.98;;;17.30;;
74229;SDS011;62589;12.568;99.958;2023-03-01T11:25:07;22.48;;;18.08;;
74229;SDS011;62589;12.568;99.958;2023-03-01T11:27:40;22.38;;;19.05;;
74229;SDS011;62589;12.568;99.958;2023-03-01T11:33:11;21.15;;;17.75;;
74229;SDS011;62589;12.568;99.958;2023-03-01T11:35:58;21.73;;;18.55;;
74229;SDS011;62589;12.568;99.958;2023-03-01T11:38:48;23.50;;;18.10;;
74229;SDS011;62589;12.568;99.958;2023-03-01T11:41:18;32.70;;;20.35;;
74229;SDS011;62589;12.568;99.958;2023-03-01T11:43:55;25.15;;;19.77;;
74229;SDS011;62589;12.568;99.958;2023-03-01T11:46:38;25.23;;;20.02;;
74229;SDS011;62589;12.568;99.958;2023-03-01T11:55:12;24.55;;;20.65;;
74229;SDS011;62589;12.568;99.958;2023-03-01T12:06:42;22.30;;;19.42;;
74229;SDS011;62589;12.568;99.958;2023-03-01T12:30:21;24.15;;;19.25;;
74229;SDS011;62589;12.568;99.958;2023-03-01T12:42:15;25.58;;;19.70;;
74229;SDS011;62589;12.568;99.958;2023-03-01T12:45:24;22.75;;;19.60;;
74229;SDS011;62589;12.568;99.958;2023-03-01T12:48:03;23.80;;;19.27;;
74229;SDS011;62589;12.568;99.958;2023-03-01T12:50:47;25.58;;;18.90;;
74229;SDS011;62589;12.568;99.958;2023-03-01T12:53:23;23.80;;;19.50;;
74229;SDS011;62589;12.568;99.958;2023-03-01T12:55:53;27.85;;;21.10;;
74229;SDS011;62589;12.568;99.958;2023-03-01T12:58:29;23.02;;;20.08;;
74229;SDS011;62589;12.568;99.958;2023-03-01T13:01:21;23.80;;;19.58;;
74229;SDS011;62589;12.568;99.958;2023-03-01T13:10:01;25.75;;;19.77;;
74229;SDS011;62589;12.568;99.958;2023-03-01T13:13:01;24.02;;;19.90;;
74229;SDS011;62589;12.568;99.958;2023-03-01T13:15:37;25.65;;;20.38;;
74229;SDS011;62589;12.568;99.958;2023-03-01T13:20:58;28.52;;;21.15;;
74229;SDS011;62589;12.568;99.958;2023-03-01T13:23:28;24.05;;;20.08;;
74229;SDS011;62589;12.568;99.958;2023-03-01T13:26:01;26.35;;;21.67;;
74229;SDS011;62589;12.568;99.958;2023-03-01T13:37:28;28.10;;;19.73;;
74229;SDS011;62589;12.568;99.958;2023-03-01T13:40:01;22.95;;;20.05;;
74229;SDS011;62589;12.568;99.958;2023-03-01T13:42:35;24.33;;;19.98;;
74229;SDS011;62589;12.568;99.958;2023-03-01T13:45:13;25.00;;;20.00;;
74229;SDS011;62589;12.568;99.958;2023-03-01T13:47:47;26.33;;;20.58;;
74229;SDS011;62589;12.568;99.958;2023-03-01T13:50:23;25.67;;;20.92;;
74229;SDS011;62589;12.568;99.958;2023-03-01T13:52:54;26.88;;;20.75;;
74229;SDS011;62589;12.568;99.958;2023-03-01T13:55:41;25.88;;;21.30;;
74229;SDS011;62589;12.568;99.958;2023-03-01T13:58:19;25.58;;;20.08;;
74229;SDS011;62589;12.568;99.958;2023-03-01T14:01:07;28.95;;;22.02;;
74229;SDS011;62589;12.568;99.958;2023-03-01T14:03:46;27.08;;;21.90;;
74229;SDS011;62589;12.568;99.958;2023-03-01T14:06:14;27.52;;;20.83;;
74229;SDS011;62589;12.568;99.958;2023-03-01T14:08:43;26.10;;;21.20;;
74229;SDS011;62589;12.568;99.958;2023-03-01T14:20:08;27.92;;;22.45;;
74229;SDS011;62589;12.568;99.958;2023-03-01T14:22:57;27.38;;;21.65;;
74229;SDS011;62589;12.568;99.958;2023-03-01T14:25:31;27.70;;;21.35;;
74229;SDS011;62589;12.568;99.958;2023-03-01T14:28:13;28.90;;;21.92;;
74229;SDS011;62589;12.568;99.958;2023-03-01T14:30:59;25.65;;;20.88;;
74229;SDS011;62589;12.568;99.958;2023-03-01T14:33:31;30.70;;;22.17;;
74229;SDS011;62589;12.568;99.958;2023-03-01T14:36:02;33.28;;;22.55;;
74229;SDS011;62589;12.568;99.958;2023-03-01T14:38:32;30.38;;;22.85;;
74229;SDS011;62589;12.568;99.958;2023-03-01T14:41:03;29.05;;;22.35;;
74229;SDS011;62589;12.568;99.958;2023-03-01T14:43:41;32.35;;;21.75;;
74229;SDS011;62589;12.568;99.958;2023-03-01T14:46:20;30.27;;;23.48;;
74229;SDS011;62589;12.568;99.958;2023-03-01T14:49:10;33.00;;;25.83;;
74229;SDS011;62589;12.568;99.958;2023-03-01T14:51:46;37.78;;;28.30;;
74229;SDS011;62589;12.568;99.958;2023-03-01T14:54:25;43.63;;;31.42;;
74229;SDS011;62589;12.568;99.958;2023-03-01T14:57:01;44.25;;;32.15;;
74229;SDS011;62589;12.568;99.958;2023-03-01T14:59:28;47.83;;;36.78;;
74229;SDS011;62589;12.568;99.958;2023-03-01T15:01:56;50.63;;;37.38;;
74229;SDS011;62589;12.568;99.958;2023-03-01T15:04:24;54.60;;;39.90;;
74229;SDS011;62589;12.568;99.958;2023-03-01T15:06:52;53.30;;;38.75;;
74229;SDS011;62589;12.568;99.958;2023-03-01T15:09:21;56.38;;;42.20;;
74229;SDS011;62589;12.568;99.958;2023-03-01T15:11:48;59.22;;;43.50;;
74229;SDS011;62589;12.568;99.958;2023-03-01T15:20:06;67.78;;;47.55;;
74229;SDS011;62589;12.568;99.958;2023-03-01T15:22:45;63.47;;;45.83;;
74229;SDS011;62589;12.568;99.958;2023-03-01T15:25:18;67.90;;;47.70;;
74229;SDS011;62589;12.568;99.958;2023-03-01T15:27:47;63.75;;;47.22;;
74229;SDS011;62589;12.568;99.958;2023-03-01T15:30:34;59.60;;;43.38;;
74229;SDS011;62589;12.568;99.958;2023-03-01T15:36:01;51.75;;;38.28;;
74229;SDS011;62589;12.568;99.958;2023-03-01T15:41:24;47.17;;;34.80;;
74229;SDS011;62589;12.568;99.958;2023-03-01T15:43:59;44.78;;;32.65;;
74229;SDS011;62589;12.568;99.958;2023-03-01T15:46:39;41.42;;;31.13;;
74229;SDS011;62589;12.568;99.958;2023-03-01T15:52:03;36.47;;;28.30;;
74229;SDS011;62589;12.568;99.958;2023-03-01T15:54:31;35.28;;;28.48;;
74229;SDS011;62589;12.568;99.958;2023-03-01T15:56:58;35.60;;;27.83;;
74229;SDS011;62589;12.568;99.958;2023-03-01T15:59:24;35.00;;;27.45;;
74229;SDS011;62589;12.568;99.958;2023-03-01T16:01:51;32.38;;;27.25;;
74229;SDS011;62589;12.568;99.958;2023-03-01T16:04:18;32.17;;;26.20;;
74229;SDS011;62589;12.568;99.958;2023-03-01T16:06:50;35.90;;;27.27;;
74229;SDS011;62589;12.568;99.958;2023-03-01T16:09:24;33.60;;;26.05;;
74229;SDS011;62589;12.568;99.958;2023-03-01T16:11:52;35.58;;;26.35;;
74229;SDS011;62589;12.568;99.958;2023-03-01T16:14:19;35.60;;;27.20;;
74229;SDS011;62589;12.568;99.958;2023-03-01T16:16:46;33.65;;;26.13;;
74229;SDS011;62589;12.568;99.958;2023-03-01T16:19:13;32.65;;;25.80;;
74229;SDS011;62589;12.568;99.958;2023-03-01T16:21:41;31.83;;;24.98;;
74229;SDS011;62589;12.568;99.958;2023-03-01T16:24:09;29.30;;;23.90;;
74229;SDS011;62589;12.568;99.958;2023-03-01T16:26:36;30.75;;;23.92;;
74229;SDS011;62589;12.568;99.958;2023-03-01T16:29:03;28.75;;;22.48;;
74229;SDS011;62589;12.568;99.958;2023-03-01T16:31:30;30.77;;;23.80;;
74229;SDS011;62589;12.568;99.958;2023-03-01T16:33:57;29.48;;;24.05;;
74229;SDS011;62589;12.568;99.958;2023-03-01T16:36:25;26.73;;;22.38;;
74229;SDS011;62589;12.568;99.958;2023-03-01T16:38:54;30.30;;;22.73;;
74229;SDS011;62589;12.568;99.958;2023-03-01T16:41:23;27.98;;;22.98;;
74229;SDS011;62589;12.568;99.958;2023-03-01T16:43:50;32.35;;;24.60;;
74229;SDS011;62589;12.568;99.958;2023-03-01T16:46:22;30.52;;;25.00;;
74229;SDS011;62589;12.568;99.958;2023-03-01T16:48:53;36.13;;;26.73;;
74229;SDS011;62589;12.568;99.958;2023-03-01T16:51:20;38.30;;;26.55;;
74229;SDS011;62589;12.568;99.958;2023-03-01T16:53:48;34.13;;;27.30;;
74229;SDS011;62589;12.568;99.958;2023-03-01T16:56:15;36.38;;;26.80;;
74229;SDS011;62589;12.568;99.958;2023-03-01T16:58:42;34.85;;;26.80;;
74229;SDS011;62589;12.568;99.958;2023-03-01T17:01:13;36.53;;;25.33;;
74229;SDS011;62589;12.568;99.958;2023-03-01T17:03:41;37.38;;;26.33;;
74229;SDS011;62589;12.568;99.958;2023-03-01T17:06:09;29.25;;;23.70;;
74229;SDS011;62589;12.568;99.958;2023-03-01T17:08:59;33.20;;;23.80;;